createdAt,value
2023-09-05T00:00:47.103Z,17.39
2023-09-05T00:01:51.148Z,17.41
2023-09-05T00:02:53.847Z,17.38
2023-09-05T00:03:56.215Z,17.40
2023-09-05T00:04:58.966Z,17.39
2023-09-05T00:06:02.505Z,17.39
2023-09-05T00:07:04.957Z,17.40
2023-09-05T00:08:07.277Z,17.40
2023-09-05T00:09:10.110Z,17.42
2023-09-05T00:10:13.373Z,17.42
2023-09-05T00:11:15.695Z,17.39
2023-09-05T00:12:17.805Z,17.34
2023-09-05T00:13:20.077Z,17.34
2023-09-05T00:14:22.522Z,17.35
2023-09-05T00:15:25.337Z,17.28
2023-09-05T00:16:29.151Z,17.28
2023-09-05T00:17:31.798Z,17.29
2023-09-05T00:18:34.084Z,17.22
2023-09-05T00:19:37.350Z,17.21
2023-09-05T00:20:40.249Z,17.19
2023-09-05T00:21:42.912Z,17.19
2023-09-05T00:22:45.650Z,17.19
2023-09-05T00:23:48.004Z,17.18
2023-09-05T00:24:50.288Z,17.19
2023-09-05T00:25:52.481Z,17.17
2023-09-05T00:26:55.296Z,17.16
2023-09-05T00:27:57.678Z,17.14
2023-09-05T00:29:00.303Z,17.09
2023-09-05T00:30:03.856Z,17.11
2023-09-05T00:31:07.123Z,17.10
2023-09-05T00:32:10.222Z,17.09
2023-09-05T00:33:13.649Z,17.08
2023-09-05T00:34:16.403Z,17.06
2023-09-05T00:35:18.615Z,17.04
2023-09-05T00:36:21.252Z,17.02
2023-09-05T00:37:23.418Z,17.03
2023-09-05T00:38:26.840Z,17.02
2023-09-05T00:39:31.394Z,16.99
2023-09-05T00:40:35.003Z,16.99
2023-09-05T00:41:38.304Z,16.98
2023-09-05T00:42:40.518Z,16.94
2023-09-05T00:43:42.797Z,16.92
2023-09-05T00:44:46.327Z,16.95
2023-09-05T00:45:51.630Z,16.91
2023-09-05T00:46:55.714Z,16.90
2023-09-05T00:47:58.493Z,16.86
2023-09-05T00:49:01.272Z,16.85
2023-09-05T00:50:04.023Z,16.83
2023-09-05T00:51:06.254Z,16.83
2023-09-05T00:52:11.289Z,16.83
2023-09-05T00:53:13.987Z,16.83
2023-09-05T00:54:16.710Z,16.80
2023-09-05T00:55:20.306Z,16.78
2023-09-05T00:56:23.214Z,16.80
2023-09-05T00:57:26.213Z,16.78
2023-09-05T00:58:28.581Z,16.78
2023-09-05T00:59:32.321Z,16.78
2023-09-05T01:00:34.832Z,16.77
2023-09-05T01:01:37.752Z,16.75
2023-09-05T01:02:39.969Z,16.74
2023-09-05T01:03:42.365Z,16.72
2023-09-05T01:04:45.511Z,16.71
2023-09-05T01:05:51.499Z,16.70
2023-09-05T01:07:11.727Z,16.69
2023-09-05T01:08:34.266Z,16.69
2023-09-05T01:09:55.683Z,16.67
2023-09-05T01:11:03.349Z,16.65
2023-09-05T01:12:06.682Z,16.67
2023-09-05T01:13:09.319Z,16.65
2023-09-05T01:14:11.826Z,16.66
2023-09-05T01:15:15.953Z,16.66
2023-09-05T01:16:18.405Z,16.63
2023-09-05T01:17:21.061Z,16.63
2023-09-05T01:18:23.869Z,16.64
2023-09-05T01:19:26.581Z,16.61
2023-09-05T01:22:06.975Z,16.72
2023-09-05T01:24:22.376Z,16.70
2023-09-05T01:25:25.233Z,16.50
2023-09-05T01:26:28.644Z,16.56
2023-09-05T01:27:31.410Z,16.55
2023-09-05T01:28:37.659Z,16.56
2023-09-05T01:29:40.240Z,16.54
2023-09-05T01:30:43.610Z,16.56
2023-09-05T01:31:46.775Z,16.55
2023-09-05T01:32:49.951Z,16.54
2023-09-05T01:33:53.412Z,16.55
2023-09-05T01:34:56.232Z,16.51
2023-09-05T01:35:58.445Z,16.54
2023-09-05T01:37:00.793Z,16.52
2023-09-05T01:38:03.825Z,16.52
2023-09-05T01:39:06.423Z,16.51
2023-09-05T01:40:10.497Z,16.50
2023-09-05T01:41:13.157Z,16.48
2023-09-05T01:42:16.247Z,16.46
2023-09-05T01:43:19.213Z,16.46
2023-09-05T01:44:21.605Z,16.47
2023-09-05T01:45:23.907Z,16.42
2023-09-05T01:46:26.382Z,16.46
2023-09-05T01:47:28.699Z,16.45
2023-09-05T01:48:32.005Z,16.43
2023-09-05T01:49:34.353Z,16.43
2023-09-05T01:50:36.867Z,16.44
2023-09-05T01:51:39.215Z,16.46
2023-09-05T01:52:41.921Z,16.47
2023-09-05T01:53:44.203Z,16.46
2023-09-05T01:54:46.953Z,16.43
2023-09-05T01:55:49.149Z,16.45
2023-09-05T01:56:51.623Z,16.42
2023-09-05T01:57:53.992Z,16.41
2023-09-05T01:58:56.906Z,16.39
2023-09-05T01:59:59.594Z,16.39
2023-09-05T02:01:06.211Z,16.38
2023-09-05T02:02:08.563Z,16.33
2023-09-05T02:03:10.861Z,16.34
2023-09-05T02:04:13.790Z,16.30
2023-09-05T02:05:16.590Z,16.31
2023-09-05T02:06:19.727Z,16.30
2023-09-05T02:07:21.956Z,16.28
2023-09-05T02:08:24.221Z,16.31
2023-09-05T02:09:26.564Z,16.29
2023-09-05T02:10:28.934Z,16.24
2023-09-05T02:11:31.549Z,16.25
2023-09-05T02:12:36.048Z,16.24
2023-09-05T02:13:38.415Z,16.23
2023-09-05T02:14:40.806Z,16.24
2023-09-05T02:15:44.205Z,16.26
2023-09-05T02:16:46.627Z,16.26
2023-09-05T02:17:49.530Z,16.21
2023-09-05T02:18:52.809Z,16.24
2023-09-05T02:19:55.553Z,16.22
2023-09-05T02:22:08.854Z,16.33
2023-09-05T02:23:11.254Z,16.17
2023-09-05T02:24:13.562Z,16.20
2023-09-05T02:25:15.929Z,16.22
2023-09-05T02:26:18.665Z,16.20
2023-09-05T02:27:20.929Z,16.21
2023-09-05T02:28:23.563Z,16.16
2023-09-05T02:29:27.985Z,16.15
2023-09-05T02:30:30.770Z,16.13
2023-09-05T02:31:33.657Z,16.14
2023-09-05T02:32:38.250Z,16.13
2023-09-05T02:33:40.536Z,16.13
2023-09-05T02:34:43.051Z,16.08
2023-09-05T02:35:46.966Z,16.09
2023-09-05T02:36:50.560Z,16.08
2023-09-05T02:37:53.991Z,16.08
2023-09-05T02:38:56.680Z,16.06
2023-09-05T02:39:59.730Z,16.07
2023-09-05T02:41:02.753Z,16.04
2023-09-05T02:42:05.262Z,16.05
2023-09-05T02:43:08.583Z,16.05
2023-09-05T02:44:11.449Z,16.03
2023-09-05T02:45:14.663Z,16.05
2023-09-05T02:46:18.045Z,16.01
2023-09-05T02:47:21.733Z,15.99
2023-09-05T02:48:24.640Z,15.98
2023-09-05T02:49:27.280Z,16.01
2023-09-05T02:50:29.655Z,16.01
2023-09-05T02:51:32.459Z,15.98
2023-09-05T02:52:46.815Z,15.97
2023-09-05T02:53:40.138Z,15.92
2023-09-05T02:54:42.576Z,15.92
2023-09-05T02:55:45.412Z,15.88
2023-09-05T02:56:48.213Z,15.87
2023-09-05T02:57:50.932Z,15.87
2023-09-05T02:58:53.768Z,15.86
2023-09-05T02:59:56.282Z,15.86
2023-09-05T03:01:03.862Z,15.83
2023-09-05T03:02:06.317Z,15.82
2023-09-05T03:03:09.004Z,15.79
2023-09-05T03:04:11.716Z,15.76
2023-09-05T03:05:14.665Z,15.74
2023-09-05T03:06:17.673Z,15.72
2023-09-05T03:07:21.659Z,15.73
2023-09-05T03:08:24.576Z,15.69
2023-09-05T03:09:27.983Z,15.72
2023-09-05T03:10:32.850Z,15.69
2023-09-05T03:11:38.193Z,15.70
2023-09-05T03:12:40.610Z,15.67
2023-09-05T03:13:44.759Z,15.68
2023-09-05T03:14:47.333Z,15.67
2023-09-05T03:15:51.398Z,15.67
2023-09-05T03:16:55.127Z,15.69
2023-09-05T03:17:57.594Z,15.68
2023-09-05T03:19:00.356Z,15.66
2023-09-05T03:20:02.792Z,15.66
2023-09-05T03:21:05.722Z,15.64
2023-09-05T03:22:08.533Z,15.65
2023-09-05T03:23:10.833Z,15.65
2023-09-05T03:24:13.115Z,15.63
2023-09-05T03:25:15.493Z,15.61
2023-09-05T03:26:17.836Z,15.63
2023-09-05T03:27:20.624Z,15.61
2023-09-05T03:28:23.370Z,15.59
2023-09-05T03:29:26.195Z,15.59
2023-09-05T03:30:30.013Z,15.60
2023-09-05T03:31:32.710Z,15.57
2023-09-05T03:32:35.130Z,15.55
2023-09-05T03:33:38.327Z,15.55
2023-09-05T03:34:41.176Z,15.56
2023-09-05T03:35:43.753Z,15.57
2023-09-05T03:36:46.071Z,15.55
2023-09-05T03:37:48.441Z,15.57
2023-09-05T03:38:50.679Z,15.55
2023-09-05T03:39:54.129Z,15.57
2023-09-05T03:40:56.461Z,15.52
2023-09-05T03:41:59.084Z,15.54
2023-09-05T03:43:01.997Z,15.55
2023-09-05T03:44:04.659Z,15.53
2023-09-05T03:45:07.905Z,15.55
2023-09-05T03:46:10.845Z,15.52
2023-09-05T03:47:14.585Z,15.50
2023-09-05T03:48:18.713Z,15.52
2023-09-05T03:49:21.489Z,15.52
2023-09-05T03:50:24.869Z,15.53
2023-09-05T03:51:27.329Z,15.54
2023-09-05T03:52:29.890Z,15.53
2023-09-05T03:53:33.947Z,15.57
2023-09-05T03:54:39.120Z,15.54
2023-09-05T03:55:41.946Z,15.55
2023-09-05T03:56:44.793Z,15.54
2023-09-05T03:57:48.225Z,15.57
2023-09-05T03:58:51.301Z,15.56
2023-09-05T03:59:53.603Z,15.55
2023-09-05T04:00:56.397Z,15.54
2023-09-05T04:01:58.754Z,15.58
2023-09-05T04:03:02.357Z,15.57
2023-09-05T04:04:05.305Z,15.60
2023-09-05T04:05:07.832Z,15.59
2023-09-05T04:06:10.179Z,15.58
2023-09-05T04:07:12.407Z,15.62
2023-09-05T04:08:14.905Z,15.55
2023-09-05T04:09:17.458Z,15.57
2023-09-05T04:10:19.880Z,15.56
2023-09-05T04:11:22.229Z,15.58
2023-09-05T04:12:24.624Z,15.55
2023-09-05T04:13:27.865Z,15.57
2023-09-05T04:14:30.715Z,15.58
2023-09-05T04:15:33.266Z,15.57
2023-09-05T04:16:36.283Z,15.55
2023-09-05T04:17:39.023Z,15.58
2023-09-05T04:18:41.594Z,15.59
2023-09-05T04:19:43.912Z,15.60
2023-09-05T04:20:46.503Z,15.61
2023-09-05T04:21:48.882Z,15.63
2023-09-05T04:22:53.083Z,15.65
2023-09-05T04:23:55.743Z,15.64
2023-09-05T04:24:58.542Z,15.64
2023-09-05T04:26:03.510Z,15.67
2023-09-05T04:27:06.263Z,15.69
2023-09-05T04:28:09.707Z,15.69
2023-09-05T04:29:12.563Z,15.73
2023-09-05T04:30:15.411Z,15.72
2023-09-05T04:31:17.859Z,15.74
2023-09-05T04:32:23.460Z,15.77
2023-09-05T04:33:26.320Z,15.76
2023-09-05T04:34:31.080Z,15.82
2023-09-05T04:35:33.354Z,15.82
2023-09-05T04:36:35.679Z,15.84
2023-09-05T04:37:38.001Z,15.86
2023-09-05T04:38:42.463Z,15.88
2023-09-05T04:39:45.153Z,15.91
2023-09-05T04:40:47.993Z,15.92
2023-09-05T04:41:50.449Z,15.95
2023-09-05T04:42:52.699Z,15.96
2023-09-05T04:43:54.974Z,15.94
2023-09-05T04:44:57.212Z,15.97
2023-09-05T04:45:59.382Z,16.03
2023-09-05T04:47:23.031Z,16.03
2023-09-05T04:48:25.630Z,16.06
2023-09-05T04:49:28.519Z,16.08
2023-09-05T04:50:30.994Z,16.10
2023-09-05T04:51:33.790Z,16.11
2023-09-05T04:52:37.759Z,16.12
2023-09-05T04:53:42.276Z,16.15
2023-09-05T04:54:44.624Z,16.16
2023-09-05T04:55:47.392Z,16.19
2023-09-05T04:56:49.945Z,16.22
2023-09-05T04:57:52.393Z,16.23
2023-09-05T04:58:56.704Z,16.25
2023-09-05T04:59:59.126Z,16.29
2023-09-05T05:01:02.255Z,16.32
2023-09-05T05:02:05.532Z,16.33
2023-09-05T05:03:07.950Z,16.35
2023-09-05T05:04:12.511Z,16.38
2023-09-05T05:05:14.794Z,16.41
2023-09-05T05:06:17.424Z,16.43
2023-09-05T05:07:20.895Z,16.45
2023-09-05T05:08:23.821Z,16.48
2023-09-05T05:09:26.296Z,16.49
2023-09-05T05:10:29.018Z,16.51
2023-09-05T05:11:31.377Z,16.54
2023-09-05T05:12:33.648Z,16.55
2023-09-05T05:13:35.728Z,16.56
2023-09-05T05:14:38.071Z,16.59
2023-09-05T05:15:40.758Z,16.60
2023-09-05T05:16:43.018Z,16.62
2023-09-05T05:17:45.383Z,16.64
2023-09-05T05:18:47.546Z,16.65
2023-09-05T05:19:49.662Z,16.68
2023-09-05T05:20:52.066Z,16.70
2023-09-05T05:21:54.312Z,16.72
2023-09-05T05:22:58.605Z,16.75
2023-09-05T05:24:01.724Z,16.78
2023-09-05T05:25:04.492Z,16.79
2023-09-05T05:26:07.371Z,16.82
2023-09-05T05:27:09.622Z,16.85
2023-09-05T05:28:12.315Z,16.87
2023-09-05T05:29:16.556Z,16.91
2023-09-05T05:30:18.827Z,16.92
2023-09-05T05:31:21.100Z,16.96
2023-09-05T05:32:23.373Z,16.97
2023-09-05T05:33:25.686Z,17.01
2023-09-05T05:34:33.019Z,17.04
2023-09-05T05:35:35.730Z,17.05
2023-09-05T05:36:38.109Z,17.08
2023-09-05T05:37:40.313Z,17.09
2023-09-05T05:38:42.981Z,17.12
2023-09-05T05:39:45.708Z,17.15
2023-09-05T05:40:48.439Z,17.16
2023-09-05T05:41:51.001Z,17.20
2023-09-05T05:42:53.248Z,17.23
2023-09-05T05:43:56.241Z,17.25
2023-09-05T05:44:58.659Z,17.28
2023-09-05T05:46:01.193Z,17.30
2023-09-05T05:47:03.660Z,17.33
2023-09-05T05:48:06.284Z,17.37
2023-09-05T05:49:09.456Z,17.39
2023-09-05T05:50:12.499Z,17.43
2023-09-05T05:51:16.133Z,17.45
2023-09-05T05:52:18.526Z,17.47
2023-09-05T05:53:21.251Z,17.49
2023-09-05T05:54:23.894Z,17.50
2023-09-05T05:55:26.150Z,17.54
2023-09-05T05:56:29.070Z,17.56
2023-09-05T05:57:32.456Z,17.58
2023-09-05T05:58:35.039Z,17.61
2023-09-05T05:59:37.893Z,17.63
2023-09-05T06:00:40.645Z,17.67
2023-09-05T06:01:43.143Z,17.70
2023-09-05T06:02:45.603Z,17.72
2023-09-05T06:03:47.976Z,17.76
2023-09-05T06:04:50.402Z,17.79
2023-09-05T06:05:53.215Z,17.81
2023-09-05T06:06:55.587Z,17.84
2023-09-05T06:07:57.834Z,17.87
2023-09-05T06:09:01.527Z,17.91
2023-09-05T06:10:04.553Z,17.95
2023-09-05T06:11:07.332Z,17.97
2023-09-05T06:12:09.933Z,18.01
2023-09-05T06:13:12.614Z,18.05
2023-09-05T06:14:15.328Z,18.08
2023-09-05T06:15:17.981Z,18.10
2023-09-05T06:16:22.590Z,18.13
2023-09-05T06:17:26.982Z,18.15
2023-09-05T06:18:29.604Z,18.19
2023-09-05T06:19:32.206Z,18.22
2023-09-05T06:20:35.952Z,18.25
2023-09-05T06:21:38.206Z,18.28
2023-09-05T06:22:41.798Z,18.30
2023-09-05T06:23:44.082Z,18.32
2023-09-05T06:24:47.392Z,18.34
2023-09-05T06:25:49.662Z,18.36
2023-09-05T06:26:52.516Z,18.40
2023-09-05T06:27:54.772Z,18.41
2023-09-05T06:28:57.540Z,18.44
2023-09-05T06:30:00.213Z,18.45
2023-09-05T06:31:03.396Z,18.48
2023-09-05T06:32:06.039Z,18.50
2023-09-05T06:33:08.445Z,18.53
2023-09-05T06:34:11.756Z,18.55
2023-09-05T06:35:15.027Z,18.58
2023-09-05T06:36:17.760Z,18.59
2023-09-05T06:37:19.956Z,18.62
2023-09-05T06:38:22.288Z,18.65
2023-09-05T06:39:24.526Z,18.68
2023-09-05T06:40:27.174Z,18.71
2023-09-05T06:41:31.895Z,18.73
2023-09-05T06:42:34.219Z,18.76
2023-09-05T06:43:37.021Z,18.79
2023-09-05T06:44:39.283Z,18.83
2023-09-05T06:45:41.730Z,18.86
2023-09-05T06:46:44.666Z,18.88
2023-09-05T06:47:47.068Z,18.92
2023-09-05T06:48:49.244Z,18.96
2023-09-05T06:49:51.666Z,19.00
2023-09-05T06:50:54.181Z,19.02
2023-09-05T06:51:56.869Z,19.07
2023-09-05T06:52:59.316Z,19.13
2023-09-05T06:54:01.591Z,19.17
2023-09-05T06:55:03.964Z,19.19
2023-09-05T06:56:07.453Z,19.24
2023-09-05T06:57:09.612Z,19.29
2023-09-05T06:58:12.041Z,19.34
2023-09-05T06:59:14.307Z,19.38
2023-09-05T07:00:17.191Z,19.40
2023-09-05T07:01:19.535Z,19.44
2023-09-05T07:02:22.320Z,19.47
2023-09-05T07:03:26.284Z,19.51
2023-09-05T07:04:28.948Z,19.54
2023-09-05T07:05:31.410Z,19.57
2023-09-05T07:06:34.064Z,19.61
2023-09-05T07:07:36.414Z,19.64
2023-09-05T07:08:38.609Z,19.68
2023-09-05T07:09:41.313Z,19.71
2023-09-05T07:10:44.420Z,19.73
2023-09-05T07:11:47.305Z,19.78
2023-09-05T07:12:50.480Z,19.81
2023-09-05T07:13:52.699Z,19.83
2023-09-05T07:14:54.822Z,19.86
2023-09-05T07:15:57.120Z,19.90
2023-09-05T07:17:02.770Z,19.94
2023-09-05T07:18:05.421Z,19.98
2023-09-05T07:19:08.103Z,20.03
2023-09-05T07:20:11.381Z,20.07
2023-09-05T07:21:13.826Z,20.12
2023-09-05T07:22:16.533Z,20.15
2023-09-05T07:23:19.077Z,20.20
2023-09-05T07:24:22.387Z,20.23
2023-09-05T07:25:24.636Z,20.26
2023-09-05T07:26:27.010Z,20.30
2023-09-05T07:27:29.446Z,20.34
2023-09-05T07:28:31.746Z,20.37
2023-09-05T07:29:36.280Z,20.41
2023-09-05T07:30:39.061Z,20.45
2023-09-05T07:31:42.587Z,20.51
2023-09-05T07:33:48.379Z,20.59
2023-09-05T07:34:50.709Z,20.63
2023-09-05T07:35:53.051Z,20.67
2023-09-05T07:36:55.297Z,20.72
2023-09-05T07:37:57.660Z,20.75
2023-09-05T07:39:01.011Z,20.79
2023-09-05T07:40:06.285Z,20.83
2023-09-05T07:41:08.397Z,20.87
2023-09-05T07:42:11.213Z,20.90
2023-09-05T07:43:13.767Z,20.93
2023-09-05T07:44:15.917Z,20.98
2023-09-05T07:45:18.244Z,21.00
2023-09-05T07:46:20.843Z,21.05
2023-09-05T07:47:23.534Z,21.08
2023-09-05T07:48:26.035Z,21.10
2023-09-05T07:49:29.187Z,21.13
2023-09-05T07:50:36.773Z,21.16
2023-09-05T07:51:39.518Z,21.21
2023-09-05T07:52:41.725Z,21.26
2023-09-05T07:53:49.593Z,21.31
2023-09-05T07:54:51.934Z,21.36
2023-09-05T07:55:54.284Z,21.41
2023-09-05T07:56:57.514Z,21.47
2023-09-05T07:57:59.846Z,21.51
2023-09-05T07:59:02.465Z,21.55
2023-09-05T08:00:06.201Z,21.58
2023-09-05T08:01:10.849Z,21.60
2023-09-05T08:02:13.420Z,21.63
2023-09-05T08:03:16.206Z,21.65
2023-09-05T08:04:18.896Z,21.67
2023-09-05T08:05:21.365Z,21.69
2023-09-05T08:06:23.906Z,21.70
2023-09-05T08:07:26.325Z,21.71
2023-09-05T08:08:29.246Z,21.73
2023-09-05T08:09:31.734Z,21.75
2023-09-05T08:10:34.052Z,21.79
2023-09-05T08:11:36.258Z,21.82
2023-09-05T08:12:38.921Z,21.85
2023-09-05T08:13:42.361Z,21.87
2023-09-05T08:14:44.737Z,21.91
2023-09-05T08:15:47.534Z,21.92
2023-09-05T08:16:50.345Z,21.96
2023-09-05T08:17:52.596Z,21.98
2023-09-05T08:18:54.850Z,22.01
2023-09-05T08:19:58.038Z,22.03
2023-09-05T08:21:00.534Z,22.05
2023-09-05T08:22:03.207Z,22.07
2023-09-05T08:23:06.177Z,22.09
2023-09-05T08:24:08.492Z,22.12
2023-09-05T08:25:10.753Z,22.14
2023-09-05T08:26:13.595Z,22.16
2023-09-05T08:27:15.859Z,22.19
2023-09-05T08:28:18.772Z,22.21
2023-09-05T08:29:21.448Z,22.23
2023-09-05T08:30:23.878Z,22.26
2023-09-05T08:31:26.509Z,22.28
2023-09-05T08:32:28.935Z,22.30
2023-09-05T08:33:31.248Z,22.32
2023-09-05T08:34:33.629Z,22.34
2023-09-05T08:35:37.078Z,22.37
2023-09-05T08:36:39.399Z,22.40
2023-09-05T08:37:41.611Z,22.44
2023-09-05T08:38:44.261Z,22.48
2023-09-05T08:39:46.612Z,22.52
2023-09-05T08:40:49.285Z,22.56
2023-09-05T08:41:51.634Z,22.61
2023-09-05T08:42:53.933Z,22.64
2023-09-05T08:43:57.949Z,22.66
2023-09-05T08:45:03.358Z,22.70
2023-09-05T08:46:06.943Z,22.71
2023-09-05T08:47:09.777Z,22.73
2023-09-05T08:48:12.340Z,22.75
2023-09-05T08:49:15.081Z,22.79
2023-09-05T08:50:18.309Z,22.82
2023-09-05T08:51:21.913Z,22.83
2023-09-05T08:52:28.283Z,22.85
2023-09-05T08:53:39.041Z,22.88
2023-09-05T08:54:41.297Z,22.91
2023-09-05T08:55:44.090Z,22.95
2023-09-05T08:56:47.447Z,22.97
2023-09-05T08:57:50.918Z,22.99
2023-09-05T08:58:53.842Z,23.01
2023-09-05T08:59:56.449Z,23.01
2023-09-05T09:00:58.902Z,23.02
2023-09-05T09:02:02.600Z,23.02
2023-09-05T09:04:15.437Z,23.13
2023-09-05T09:05:18.172Z,23.04
2023-09-05T09:06:25.568Z,23.08
2023-09-05T09:07:28.733Z,23.11
2023-09-05T09:08:40.592Z,23.14
2023-09-05T09:09:42.813Z,23.18
2023-09-05T09:12:15.425Z,23.39
2023-09-05T09:13:21.558Z,23.34
2023-09-05T09:14:24.225Z,23.33
2023-09-05T09:15:27.473Z,23.31
2023-09-05T09:16:31.017Z,23.33
2023-09-05T09:17:33.399Z,23.27
2023-09-05T09:18:35.704Z,23.31
2023-09-05T09:19:42.062Z,23.31
2023-09-05T09:20:46.416Z,23.32
2023-09-05T09:21:48.770Z,23.32
2023-09-05T09:22:51.863Z,23.29
2023-09-05T09:25:12.454Z,23.38
2023-09-05T09:26:15.731Z,23.24
2023-09-05T09:27:18.042Z,23.25
2023-09-05T09:29:34.310Z,23.41
2023-09-05T09:30:36.810Z,23.34
2023-09-05T09:31:39.297Z,23.38
2023-09-05T09:32:41.696Z,23.42
2023-09-05T09:33:44.655Z,23.44
2023-09-05T09:34:47.011Z,23.47
2023-09-05T09:36:07.880Z,23.50
2023-09-05T09:37:10.760Z,23.50
2023-09-05T09:38:13.024Z,23.51
2023-09-05T09:39:15.301Z,23.53
2023-09-05T09:40:18.310Z,23.54
2023-09-05T09:41:21.906Z,23.55
2023-09-05T09:42:24.636Z,23.58
2023-09-05T09:44:37.991Z,23.70
2023-09-05T09:45:40.566Z,23.61
2023-09-05T09:46:43.343Z,23.61
2023-09-05T09:47:50.480Z,23.61
2023-09-05T09:48:55.456Z,23.62
2023-09-05T09:49:59.372Z,23.61
2023-09-05T09:52:17.085Z,23.74
2023-09-05T09:53:22.965Z,23.65
2023-09-05T09:54:30.577Z,23.67
2023-09-05T09:55:34.086Z,23.71
2023-09-05T09:56:39.354Z,23.73
2023-09-05T09:57:52.326Z,23.76
2023-09-05T09:58:56.410Z,23.80
2023-09-05T10:00:02.812Z,23.83
2023-09-05T10:01:10.183Z,23.86
2023-09-05T10:02:16.218Z,23.91
2023-09-05T10:03:19.801Z,23.95
2023-09-05T10:04:24.529Z,23.97
2023-09-05T10:05:28.306Z,24.01
2023-09-05T10:06:30.880Z,24.05
2023-09-05T10:07:34.115Z,24.11
2023-09-05T10:08:42.006Z,24.15
2023-09-05T10:09:43.615Z,24.17
2023-09-05T10:10:47.693Z,24.20
2023-09-05T10:11:50.869Z,24.24
2023-09-05T10:12:54.251Z,24.24
2023-09-05T10:13:58.419Z,24.28
2023-09-05T10:15:04.328Z,24.31
2023-09-05T10:16:09.419Z,24.34
2023-09-05T10:17:12.447Z,24.38
2023-09-05T10:18:17.495Z,24.41
2023-09-05T10:19:21.472Z,24.44
2023-09-05T10:20:28.170Z,24.45
2023-09-05T10:21:31.329Z,24.43
2023-09-05T10:22:38.502Z,24.44
2023-09-05T10:23:42.549Z,24.45
2023-09-05T10:24:46.344Z,24.44
2023-09-05T10:25:49.966Z,24.46
2023-09-05T10:26:52.769Z,24.46
2023-09-05T10:27:55.054Z,24.46
2023-09-05T10:28:57.505Z,24.47
2023-09-05T10:30:00.394Z,24.48
2023-09-05T10:31:08.399Z,24.52
2023-09-05T10:32:20.535Z,24.54
2023-09-05T10:34:54.640Z,24.72
2023-09-05T10:35:56.984Z,24.62
2023-09-05T10:36:59.723Z,24.67
2023-09-05T10:38:04.853Z,24.70
2023-09-05T10:39:24.553Z,24.75
2023-09-05T10:41:40.894Z,24.91
2023-09-05T10:44:08.064Z,24.93
2023-09-05T10:45:20.059Z,24.86
2023-09-05T10:46:23.470Z,24.89
2023-09-05T10:47:30.395Z,24.90
2023-09-05T10:48:36.101Z,24.91
2023-09-05T10:51:12.237Z,25.05
2023-09-05T10:52:21.574Z,24.94
2023-09-05T10:53:24.334Z,24.97
2023-09-05T10:54:28.870Z,24.95
2023-09-05T10:55:36.255Z,24.98
2023-09-05T10:56:43.224Z,25.00
2023-09-05T10:57:47.225Z,25.01
2023-09-05T10:58:53.212Z,25.05
2023-09-05T10:59:55.520Z,25.07
2023-09-05T11:00:58.191Z,25.11
2023-09-05T11:02:00.970Z,25.10
2023-09-05T11:03:14.449Z,25.12
2023-09-05T11:04:23.392Z,25.14
2023-09-05T11:05:25.930Z,25.13
2023-09-05T11:06:28.240Z,25.12
2023-09-05T11:07:32.010Z,25.11
2023-09-05T11:08:34.261Z,25.10
2023-09-05T11:09:40.960Z,25.14
2023-09-05T11:10:43.126Z,25.15
2023-09-05T11:11:45.400Z,25.15
2023-09-05T11:12:48.749Z,25.15
2023-09-05T11:13:51.700Z,25.16
2023-09-05T11:14:55.212Z,25.14
2023-09-05T11:16:00.853Z,25.13
2023-09-05T11:17:04.156Z,25.16
2023-09-05T11:18:07.828Z,25.20
2023-09-05T11:19:10.329Z,25.23
2023-09-05T11:20:13.282Z,25.25
2023-09-05T11:21:23.585Z,25.27
2023-09-05T11:22:25.888Z,25.27
2023-09-05T11:23:28.531Z,25.26
2023-09-05T11:24:32.911Z,25.25
2023-09-05T11:25:41.698Z,25.27
2023-09-05T11:26:44.542Z,25.27
2023-09-05T11:27:49.382Z,25.25
2023-09-05T11:28:52.450Z,25.25
2023-09-05T11:29:55.721Z,25.23
2023-09-05T11:30:58.351Z,25.26
2023-09-05T11:32:01.034Z,25.26
2023-09-05T11:33:09.061Z,25.27
2023-09-05T11:34:15.442Z,25.27
2023-09-05T11:35:20.207Z,25.32
2023-09-05T11:36:22.103Z,25.31
2023-09-05T11:37:25.126Z,25.32
2023-09-05T11:38:28.060Z,25.31
2023-09-05T11:39:31.628Z,25.29
2023-09-05T11:40:34.110Z,25.30
2023-09-05T11:41:39.398Z,25.29
2023-09-05T11:42:41.902Z,25.30
2023-09-05T11:43:52.659Z,25.29
2023-09-05T11:44:55.529Z,25.31
2023-09-05T11:45:58.063Z,25.33
2023-09-05T11:47:01.723Z,25.38
2023-09-05T11:48:09.977Z,25.41
2023-09-05T11:49:12.521Z,25.43
2023-09-05T11:50:16.759Z,25.42
2023-09-05T11:51:19.338Z,25.44
2023-09-05T11:52:24.006Z,25.44
2023-09-05T11:53:28.385Z,25.44
2023-09-05T11:54:33.888Z,25.39
2023-09-05T11:55:36.971Z,25.39
2023-09-05T11:56:39.400Z,25.38
2023-09-05T11:57:41.936Z,25.35
2023-09-05T11:58:45.769Z,25.34
2023-09-05T11:59:49.568Z,25.33
2023-09-05T12:00:52.123Z,25.32
2023-09-05T12:01:55.284Z,25.32
2023-09-05T12:02:59.259Z,25.31
2023-09-05T12:04:02.982Z,25.33
2023-09-05T12:05:11.164Z,25.33
2023-09-05T12:06:14.663Z,25.36
2023-09-05T12:07:16.966Z,25.40
2023-09-05T12:08:33.760Z,25.44
2023-09-05T12:09:24.708Z,25.45
2023-09-05T12:10:28.890Z,25.45
2023-09-05T12:11:31.315Z,25.45
2023-09-05T12:12:33.526Z,25.44
2023-09-05T12:13:42.242Z,25.46
2023-09-05T12:14:57.046Z,25.47
2023-09-05T12:15:59.988Z,25.46
2023-09-05T12:17:02.654Z,25.48
2023-09-05T12:18:07.053Z,25.46
2023-09-05T12:19:10.853Z,25.43
2023-09-05T12:20:13.309Z,25.44
2023-09-05T12:21:16.062Z,25.44
2023-09-05T12:22:31.647Z,25.47
2023-09-05T12:23:33.890Z,25.47
2023-09-05T12:24:36.129Z,25.47
2023-09-05T12:25:55.361Z,25.47
2023-09-05T12:26:46.106Z,25.47
2023-09-05T12:27:50.180Z,25.43
2023-09-05T12:28:53.986Z,25.43
2023-09-05T12:29:58.358Z,25.43
2023-09-05T12:31:09.769Z,25.44
2023-09-05T12:32:12.415Z,25.45
2023-09-05T12:33:15.222Z,25.47
2023-09-05T12:34:18.065Z,25.45
2023-09-05T12:35:21.442Z,25.45
2023-09-05T12:36:23.936Z,25.48
2023-09-05T12:37:27.129Z,25.50
2023-09-05T12:38:29.933Z,25.52
2023-09-05T12:39:32.202Z,25.56
2023-09-05T12:40:35.452Z,25.55
2023-09-05T12:41:38.274Z,25.56
2023-09-05T12:42:40.667Z,25.57
2023-09-05T12:43:43.307Z,25.57
2023-09-05T12:44:46.421Z,25.60
2023-09-05T12:45:49.072Z,25.60
2023-09-05T12:46:51.279Z,25.62
2023-09-05T12:47:54.110Z,25.65
2023-09-05T12:48:56.514Z,25.67
2023-09-05T12:50:10.539Z,25.68
2023-09-05T12:51:03.542Z,25.68
2023-09-05T12:52:06.269Z,25.68
2023-09-05T12:53:09.670Z,25.68
2023-09-05T12:54:12.460Z,25.68
2023-09-05T12:55:15.933Z,25.70
2023-09-05T12:56:18.934Z,25.74
2023-09-05T12:57:21.193Z,25.75
2023-09-05T12:58:23.518Z,25.76
2023-09-05T12:59:26.392Z,25.76
2023-09-05T13:00:28.875Z,25.79
2023-09-05T13:01:31.189Z,25.78
2023-09-05T13:02:34.875Z,25.78
2023-09-05T13:03:37.652Z,25.77
2023-09-05T13:04:39.926Z,25.77
2023-09-05T13:05:42.539Z,25.79
2023-09-05T13:06:45.873Z,25.77
2023-09-05T13:07:48.794Z,25.76
2023-09-05T13:08:51.140Z,25.79
2023-09-05T13:09:55.351Z,25.77
2023-09-05T13:10:58.625Z,25.79
2023-09-05T13:12:00.923Z,25.78
2023-09-05T13:13:06.011Z,25.78
2023-09-05T13:14:08.695Z,25.79
2023-09-05T13:15:11.381Z,25.79
2023-09-05T13:16:13.773Z,25.81
2023-09-05T13:17:17.088Z,25.87
2023-09-05T13:18:19.435Z,25.88
2023-09-05T13:19:22.740Z,25.89
2023-09-05T13:20:25.272Z,25.89
2023-09-05T13:21:27.486Z,25.88
2023-09-05T13:22:30.097Z,25.87
2023-09-05T13:23:32.371Z,25.86
2023-09-05T13:24:34.673Z,25.84
2023-09-05T13:25:37.053Z,25.84
2023-09-05T13:26:39.698Z,25.86
2023-09-05T13:27:41.954Z,25.84
2023-09-05T13:28:44.260Z,25.86
2023-09-05T13:29:46.642Z,25.84
2023-09-05T13:30:49.457Z,25.84
2023-09-05T13:31:51.593Z,25.83
2023-09-05T13:32:53.876Z,25.86
2023-09-05T13:33:56.538Z,25.88
2023-09-05T13:34:59.312Z,25.88
2023-09-05T13:36:02.927Z,25.89
2023-09-05T13:37:06.452Z,25.91
2023-09-05T13:38:11.090Z,25.92
2023-09-05T13:39:14.009Z,25.91
2023-09-05T13:40:16.409Z,25.88
2023-09-05T13:41:19.325Z,25.87
2023-09-05T13:42:22.339Z,25.85
2023-09-05T13:43:25.076Z,25.84
2023-09-05T13:44:27.861Z,25.84
2023-09-05T13:45:30.258Z,25.83
2023-09-05T13:46:32.992Z,25.82
2023-09-05T13:47:35.620Z,25.80
2023-09-05T13:48:38.302Z,25.80
2023-09-05T13:49:40.840Z,25.76
2023-09-05T13:50:43.179Z,25.79
2023-09-05T13:51:46.130Z,25.78
2023-09-05T13:52:49.795Z,25.80
2023-09-05T13:53:53.416Z,25.83
2023-09-05T13:54:55.738Z,25.85